Главная страница
METAR-TAF:

METAR-TAF

Аэропорты :

Уагадугу, Буркина-Фасо

широта: 12-21N, долгота: 001-31W, высота над уровнем моря: 316 м

Текущие метеонаблюдения

Эта сводка был подготовлена 56 минут назад, в 22:00 UTC
Ветер 3 Узел от восточно-северо-восточный
Температура 24°C
Влажность 31%
Давление 1017 hPa
Видимость 10 км и более
Нет облачности ниже 1500 м, и нет кучево-дождевой облачности

METAR: DFFD 092200Z 06003KT CAVOK 24/06 Q1017 NOSIG

Время: 22:56 (22:56 UTC)

Прогноз

Эта сводка был подготовлена 5 часа и 56 минут назад, в 17:00 UTC
Прогноз действительный с 09-го 18 UTC до 10-го 24 UTC
Ветер 8 Узел от восточно-северо-восточный
Видимость: 8000 м
временами
С 10-го 06 UTC до 10-го 10 UTC
Видимость: 4000 м
мгла

TAF: DFFD 091700Z 0918/1024 06008KT 8000 NSC TEMPO 1006/1010 4000 HZ

Метеонаблюдения и прогнозы для более 4000 аэропортов (сводки METAR и TAF).

Имеющиеся станции представлены на карте желтыми и красными точками.

Чтобы увидеть название станции, наведите на нее мышь.

Затем щелкните, чтобы увидеть метеонаблюдения и метеопрогнозы.

Управление картой: чтобы увеличить масштаб, щелкните зеленые кнопки с черным крестиком; чтобы уменьшить масштаб, щелкните зеленую кнопку с тире; для просмотра соседних карт щелкайте зеленые стрелки.


METAR-TAF: